Search METAR Data

METAR Data for ENLK:

ENLK 301150Z 17011KT 150V210 9999 FEW014 15/10 Q1011